createdAt,value
2018-11-20T00:01:17.942Z,99751.35
2018-11-20T00:04:09.355Z,99738.13
2018-11-20T00:06:56.678Z,99736.70
2018-11-20T00:09:42.472Z,99733.27
2018-11-20T00:12:31.230Z,99731.70
2018-11-20T00:15:18.750Z,99730.84
2018-11-20T00:18:06.176Z,99721.00
2018-11-20T00:20:50.434Z,99727.74
2018-11-20T00:23:42.052Z,99727.48
2018-11-20T00:26:30.808Z,99716.69
2018-11-20T00:29:18.242Z,99717.82
2018-11-20T00:32:05.560Z,99710.77
2018-11-20T00:34:54.238Z,99711.61
2018-11-20T00:37:41.487Z,99707.56
2018-11-20T00:40:18.015Z,99700.57
2018-11-20T00:43:09.552Z,99695.55
2018-11-20T00:46:00.315Z,99695.85
2018-11-20T00:48:47.963Z,99698.75
2018-11-20T00:51:30.219Z,99692.24
2018-11-20T00:54:30.797Z,99687.91
2018-11-20T00:57:19.128Z,99688.66
2018-11-20T01:00:07.705Z,99690.28
2018-11-20T01:03:14.620Z,99682.09
2018-11-20T01:06:18.285Z,99681.22
2018-11-20T01:08:54.733Z,99679.22
2018-11-20T01:12:01.746Z,99679.17
2018-11-20T01:15:05.855Z,99686.02
2018-11-20T01:18:03.520Z,99682.17
2018-11-20T01:20:41.547Z,99683.64
2018-11-20T01:23:28.849Z,99691.45
2018-11-20T01:26:32.560Z,99685.11
2018-11-20T01:29:12.069Z,99689.42
2018-11-20T01:32:10.589Z,99690.83
2018-11-20T01:35:01.292Z,99669.25
2018-11-20T01:37:47.787Z,99684.02
2018-11-20T01:40:28.497Z,99672.98
2018-11-20T01:43:32.470Z,99675.02
2018-11-20T01:46:19.590Z,99669.96
2018-11-20T01:49:06.920Z,99665.96
2018-11-20T01:52:10.725Z,99668.73
2018-11-20T01:54:56.389Z,99664.80
2018-11-20T01:57:45.034Z,99660.05
2018-11-20T02:00:24.622Z,99659.25
2018-11-20T02:03:13.366Z,99649.73
2018-11-20T02:06:02.062Z,99647.62
2018-11-20T02:08:49.111Z,99643.66
2018-11-20T02:11:30.931Z,99636.50
2018-11-20T02:14:28.383Z,99636.63
2018-11-20T02:17:31.125Z,99626.74
2018-11-20T02:20:28.631Z,99620.87
2018-11-20T02:23:29.297Z,99621.30
2018-11-20T02:26:20.693Z,99612.63
2018-11-20T02:29:21.627Z,99617.88
2018-11-20T02:32:16.431Z,99613.25
2018-11-20T02:35:03.958Z,99610.83
2018-11-20T02:37:46.719Z,99607.09
2018-11-20T02:40:35.424Z,99602.53
2018-11-20T02:43:15.100Z,99597.87
2018-11-20T02:46:06.599Z,99595.05
2018-11-20T02:48:54.017Z,99586.84
2018-11-20T02:51:41.551Z,99582.84
2018-11-20T02:54:28.875Z,99583.04
2018-11-20T02:57:23.228Z,99572.80
2018-11-20T03:00:12.015Z,99568.85
2018-11-20T03:02:54.547Z,99567.78
2018-11-20T03:05:49.049Z,99571.48
2018-11-20T03:08:36.501Z,99564.94
2018-11-20T03:11:23.762Z,99569.47
2018-11-20T03:14:15.282Z,99566.47
2018-11-20T03:17:09.880Z,99572.46
2018-11-20T03:19:57.239Z,99570.18
2018-11-20T03:22:52.516Z,99567.22
2018-11-20T03:26:03.392Z,99567.80
2018-11-20T03:29:22.302Z,99560.05
2018-11-20T03:32:29.244Z,99553.90
2018-11-20T03:35:16.661Z,99561.08
2018-11-20T03:38:20.365Z,99561.47
2018-11-20T03:41:12.604Z,99554.48
2018-11-20T03:43:50.628Z,99555.73
2018-11-20T03:46:57.678Z,99554.63
2018-11-20T03:49:46.458Z,99545.69
2018-11-20T03:52:41.112Z,99552.00
2018-11-20T03:55:28.593Z,99550.22
2018-11-20T03:58:22.771Z,99540.98
2018-11-20T04:01:14.397Z,99538.17
2018-11-20T04:04:05.701Z,99538.33
2018-11-20T04:06:53.298Z,99536.20
2018-11-20T04:09:37.815Z,99528.45
2018-11-20T04:12:25.317Z,99525.82
2018-11-20T04:15:23.178Z,99521.14
2018-11-20T04:18:23.807Z,99516.25
2018-11-20T04:21:15.200Z,99515.77
2018-11-20T04:24:04.011Z,99509.38
2018-11-20T04:27:03.990Z,99513.33
2018-11-20T04:29:58.609Z,99507.16
2018-11-20T04:32:49.183Z,99509.89
2018-11-20T04:35:40.832Z,99503.03
2018-11-20T04:38:20.877Z,99511.09
2018-11-20T04:41:08.406Z,99511.76
2018-11-20T04:44:09.302Z,99513.08
2018-11-20T04:46:56.475Z,99511.72
2018-11-20T04:49:47.822Z,99510.19
2018-11-20T04:52:29.389Z,99503.61
2018-11-20T04:55:30.322Z,99502.47
2018-11-20T04:58:18.379Z,99501.45
2018-11-20T05:01:06.097Z,99504.05
2018-11-20T05:03:54.840Z,99502.92
2018-11-20T05:06:49.362Z,99506.09
2018-11-20T05:09:39.006Z,99499.19
2018-11-20T05:12:45.922Z,99498.42
2018-11-20T05:15:36.220Z,99497.14
2018-11-20T05:18:33.873Z,99497.59
2018-11-20T05:21:21.612Z,99495.50
2018-11-20T05:24:13.811Z,99495.87
2018-11-20T05:27:07.559Z,99489.51
2018-11-20T05:29:53.447Z,99492.28
2018-11-20T05:32:40.934Z,99492.50
2018-11-20T05:35:40.856Z,99491.84
2018-11-20T05:38:29.188Z,99491.19
2018-11-20T05:41:19.616Z,99485.64
2018-11-20T05:44:08.255Z,99479.94
2018-11-20T05:47:06.419Z,99492.14
2018-11-20T05:50:03.981Z,99490.61
2018-11-20T05:52:46.292Z,99495.50
2018-11-20T05:55:47.012Z,99500.14
2018-11-20T05:58:47.074Z,99501.93
2018-11-20T06:01:36.913Z,99504.41
2018-11-20T06:04:19.460Z,99498.31
2018-11-20T06:07:12.748Z,99494.19
2018-11-20T06:10:00.590Z,99494.84
2018-11-20T06:12:48.574Z,99499.09
2018-11-20T06:15:39.364Z,99507.89
2018-11-20T06:18:28.355Z,99513.55
2018-11-20T06:21:15.395Z,99511.39
2018-11-20T06:24:07.059Z,99504.89
2018-11-20T06:26:54.694Z,99512.20
2018-11-20T06:29:48.699Z,99513.81
2018-11-20T06:32:38.342Z,99514.53
2018-11-20T06:35:33.551Z,99514.02
2018-11-20T06:38:28.142Z,99515.30
2018-11-20T06:41:15.958Z,99507.66
2018-11-20T06:44:41.605Z,99500.40
2018-11-20T06:47:44.616Z,99505.44
2018-11-20T06:50:31.830Z,99504.59
2018-11-20T06:53:18.635Z,99502.33
2018-11-20T06:56:06.453Z,99499.52
2018-11-20T06:58:53.397Z,99503.17
2018-11-20T07:01:40.074Z,99509.23
2018-11-20T07:04:27.902Z,99505.66
2018-11-20T07:07:14.426Z,99504.13
2018-11-20T07:10:20.881Z,99495.61
2018-11-20T07:13:09.535Z,99495.83
2018-11-20T07:16:13.027Z,99495.72
2018-11-20T07:19:16.738Z,99501.02
2018-11-20T07:22:09.400Z,99499.45
2018-11-20T07:25:04.274Z,99497.73
2018-11-20T07:28:04.306Z,99498.82
2018-11-20T07:31:01.772Z,99498.45
2018-11-20T07:34:01.675Z,99505.40
2018-11-20T07:36:58.222Z,99499.88
2018-11-20T07:39:46.529Z,99497.23
2018-11-20T07:42:33.274Z,99495.45
2018-11-20T07:45:20.670Z,99489.25
2018-11-20T07:48:07.204Z,99491.22
2018-11-20T08:22:20.533Z,99500.38
2018-11-20T08:24:57.322Z,99501.78
2018-11-20T08:27:47.897Z,99501.05
2018-11-20T08:30:35.750Z,99507.64
2018-11-20T08:33:26.244Z,99508.87
2018-11-20T08:36:13.015Z,99507.92
2018-11-20T08:39:16.099Z,99509.82
2018-11-20T08:42:15.192Z,99508.36
2018-11-20T08:45:09.173Z,99504.58
2018-11-20T08:47:55.699Z,99500.92
2018-11-20T08:50:55.539Z,99502.59
2018-11-20T08:53:42.229Z,99506.55
2018-11-20T08:56:39.124Z,99502.62
2018-11-20T08:59:32.757Z,99505.14
2018-11-20T09:02:20.650Z,99490.03
2018-11-20T09:05:07.187Z,99494.11
2018-11-20T09:08:04.182Z,99502.09
2018-11-20T09:10:50.495Z,99491.76
2018-11-20T09:13:36.685Z,99490.66
2018-11-20T09:16:24.436Z,99485.31
2018-11-20T09:19:14.993Z,99484.00
2018-11-20T09:22:01.410Z,99493.88
2018-11-20T09:24:51.765Z,99490.58
2018-11-20T09:27:38.433Z,99486.66
2018-11-20T09:30:38.970Z,99488.31
2018-11-20T09:33:38.852Z,99484.75
2018-11-20T09:36:25.529Z,99484.69
2018-11-20T09:39:12.191Z,99482.17
2018-11-20T09:41:58.727Z,99479.31
2018-11-20T09:45:08.907Z,99478.23
2018-11-20T09:47:55.463Z,99476.33
2018-11-20T09:50:49.463Z,99475.99
2018-11-20T09:53:35.768Z,99477.54
2018-11-20T09:56:29.661Z,99466.70
2018-11-20T09:59:26.907Z,99466.05
2018-11-20T10:02:20.651Z,99463.11
2018-11-20T10:05:07.318Z,99452.02
2018-11-20T10:07:53.745Z,99452.39
2018-11-20T10:10:41.547Z,99455.03
2018-11-20T10:13:28.098Z,99451.68
2018-11-20T10:16:12.148Z,99449.94
2018-11-20T10:18:58.501Z,99456.64
2018-11-20T10:21:51.888Z,99443.77
2018-11-20T10:24:39.655Z,99448.12
2018-11-20T10:27:24.188Z,99450.24
2018-11-20T10:30:23.680Z,99454.89
2018-11-20T10:33:10.464Z,99456.05
2018-11-20T10:35:57.062Z,99459.65
2018-11-20T10:38:39.486Z,99450.17
2018-11-20T10:41:26.000Z,99444.67
2018-11-20T10:44:25.552Z,99433.66
2018-11-20T10:47:19.389Z,99417.09
2018-11-20T10:50:05.658Z,99417.09
2018-11-20T10:52:52.232Z,99417.69
2018-11-20T10:55:52.337Z,99418.53
2018-11-20T10:58:52.074Z,99423.23
2018-11-20T11:01:38.871Z,99428.59
2018-11-20T11:04:24.900Z,99429.55
2018-11-20T11:07:16.584Z,99417.09
2018-11-20T11:09:49.496Z,99420.45
2018-11-20T11:12:29.694Z,99415.30
2018-11-20T11:15:32.333Z,99417.95
2018-11-20T11:18:38.611Z,99408.91
2018-11-20T11:21:41.485Z,99397.41
2018-11-20T11:24:29.320Z,99403.63
2018-11-20T11:27:14.184Z,99409.66
2018-11-20T11:30:04.892Z,99406.06
2018-11-20T11:32:55.728Z,99401.76
2018-11-20T11:35:52.908Z,99393.99
2018-11-20T11:38:55.768Z,99396.63
2018-11-20T11:41:46.616Z,99405.25
2018-11-20T11:44:40.484Z,99405.97
2018-11-20T11:47:36.901Z,99407.17
2018-11-20T11:50:23.476Z,99413.16
2018-11-20T11:53:06.303Z,99420.02
2018-11-20T11:56:07.950Z,99420.26
2018-11-20T11:58:55.835Z,99425.41
2018-11-20T12:04:22.111Z,99438.38
2018-11-20T12:07:28.336Z,99435.09
2018-11-20T12:10:28.557Z,99431.74
2018-11-20T12:16:01.654Z,99437.28
2018-11-20T12:18:48.213Z,99434.26
2018-11-20T12:21:54.070Z,99440.30
2018-11-20T12:24:47.689Z,99444.37
2018-11-20T12:27:44.510Z,99433.89
2018-11-20T12:30:34.683Z,99440.42
2018-11-20T12:33:28.814Z,99440.88
2018-11-20T12:36:15.447Z,99434.89
2018-11-20T12:39:05.837Z,99430.81
2018-11-20T12:41:44.391Z,99426.98
2018-11-20T12:44:24.918Z,99416.66
2018-11-20T12:47:15.091Z,99414.50
2018-11-20T12:49:57.886Z,99414.50
2018-11-20T12:52:51.888Z,99411.15
2018-11-20T12:55:38.491Z,99409.34
2018-11-20T12:58:28.871Z,99403.62
2018-11-20T13:01:15.169Z,99394.97
2018-11-20T13:03:58.135Z,99390.79
2018-11-20T13:06:43.344Z,99392.09
2018-11-20T13:09:49.966Z,99392.09
2018-11-20T13:12:36.806Z,99391.63
2018-11-20T13:15:24.414Z,99388.73
2018-11-20T13:18:11.131Z,99388.73
2018-11-20T13:20:59.746Z,99390.41
2018-11-20T13:23:59.713Z,99385.02
2018-11-20T13:26:46.171Z,99383.21
2018-11-20T13:29:33.915Z,99389.95
2018-11-20T13:32:20.768Z,99387.54
2018-11-20T13:35:10.999Z,99402.41
2018-11-20T13:38:00.725Z,99403.35
2018-11-20T13:41:40.348Z,99406.02
2018-11-20T13:44:27.453Z,99413.68
2018-11-20T13:47:33.991Z,99423.03
2018-11-20T13:50:20.888Z,99423.03
2018-11-20T13:53:07.541Z,99424.83
2018-11-20T13:56:07.471Z,99431.54
2018-11-20T13:58:58.229Z,99425.92
2018-11-20T14:01:58.323Z,99422.91
2018-11-20T14:05:04.967Z,99425.67
2018-11-20T14:07:51.239Z,99419.42
2018-11-20T14:10:37.491Z,99426.98
2018-11-20T14:13:31.513Z,99423.98
2018-11-20T14:16:18.098Z,99423.98
2018-11-20T14:19:21.212Z,99429.87
2018-11-20T14:22:11.984Z,99433.58
2018-11-20T14:25:03.291Z,99440.41
2018-11-20T14:27:59.981Z,99437.44
2018-11-20T14:30:50.752Z,99443.34
2018-11-20T14:33:41.509Z,99433.45
2018-11-20T14:36:47.793Z,99433.45
2018-11-20T14:39:35.288Z,99439.21
2018-11-20T14:42:41.690Z,99443.39
2018-11-20T14:45:44.933Z,99443.39
2018-11-20T14:48:31.782Z,99444.11
2018-11-20T14:51:15.307Z,99444.11
2018-11-20T14:54:12.616Z,99437.88
2018-11-20T14:56:59.118Z,99436.56
2018-11-20T14:59:46.024Z,99437.41
2018-11-20T15:02:38.349Z,99441.69
2018-11-20T15:05:26.815Z,99434.53
2018-11-20T15:08:33.196Z,99445.52
2018-11-20T15:11:20.972Z,99445.52
2018-11-20T15:14:07.758Z,99451.36
2018-11-20T15:16:51.357Z,99446.23
2018-11-20T15:19:42.030Z,99457.75
2018-11-20T15:22:29.898Z,99441.09
2018-11-20T15:25:16.430Z,99440.25
2018-11-20T15:28:10.309Z,99436.26
2018-11-20T15:30:56.481Z,99431.95
2018-11-20T15:33:36.244Z,99431.95
2018-11-20T15:36:12.070Z,99458.06
2018-11-20T15:39:05.783Z,99459.74
2018-11-20T15:41:56.328Z,99461.02
2018-11-20T15:44:59.286Z,99459.82
2018-11-20T15:47:48.265Z,99459.82
2018-11-20T15:50:23.911Z,99466.20
2018-11-20T15:53:20.960Z,99447.16
2018-11-20T15:56:21.111Z,99447.16
2018-11-20T15:59:21.002Z,99435.53
2018-11-20T16:02:08.754Z,99435.53
2018-11-20T16:04:55.607Z,99414.06
2018-11-20T16:07:43.371Z,99414.06
2018-11-20T16:10:30.010Z,99418.29
2018-11-20T16:13:06.300Z,99410.74
2018-11-20T16:15:56.333Z,99444.00
2018-11-20T16:18:42.962Z,99449.39
2018-11-20T16:21:45.723Z,99449.39
2018-11-20T16:24:31.867Z,99444.77
2018-11-20T16:27:19.748Z,99488.50
2018-11-20T16:30:10.381Z,99488.50
2018-11-20T16:33:00.881Z,99497.37
2018-11-20T16:36:06.888Z,99498.55
2018-11-20T16:39:13.434Z,99491.27
2018-11-20T16:42:06.844Z,99491.27
2018-11-20T16:45:01.443Z,99512.16
2018-11-20T16:47:47.875Z,99515.02
2018-11-20T16:50:41.361Z,99515.02
2018-11-20T16:53:27.683Z,99542.88
2018-11-20T16:56:14.378Z,99544.37
2018-11-20T16:59:04.146Z,99553.53
2018-11-20T17:01:50.390Z,99553.53
2018-11-20T17:04:50.470Z,99549.95
2018-11-20T17:07:37.130Z,99549.95
2018-11-20T17:10:20.213Z,99540.17
2018-11-20T17:13:26.456Z,99537.84
2018-11-20T17:16:13.161Z,99539.81
2018-11-20T17:19:03.459Z,99526.11
2018-11-20T17:21:50.170Z,99521.53
2018-11-20T17:24:37.918Z,99519.05
2018-11-20T17:27:24.342Z,99531.50
2018-11-20T17:30:10.931Z,99531.50
2018-11-20T17:33:07.877Z,99530.30
2018-11-20T17:35:58.578Z,99530.30
2018-11-20T17:39:01.300Z,99538.10
2018-11-20T17:41:47.968Z,99531.97
2018-11-20T17:44:34.612Z,99520.05
2018-11-20T17:47:21.232Z,99517.05
2018-11-20T17:50:07.955Z,99494.73
2018-11-20T17:52:54.165Z,99486.88
2018-11-20T17:55:29.693Z,99516.50
2018-11-20T17:58:32.342Z,99516.50
2018-11-20T18:01:20.176Z,99520.64
2018-11-20T18:04:06.713Z,99520.64
2018-11-20T18:06:53.450Z,99541.05
2018-11-20T18:09:39.983Z,99541.05
2018-11-20T18:12:40.140Z,99554.91
2018-11-20T18:15:27.887Z,99554.91
2018-11-20T18:18:15.707Z,99552.61
2018-11-20T18:21:02.234Z,99563.88
2018-11-20T18:23:48.428Z,99563.88
2018-11-20T18:26:35.200Z,99566.66
2018-11-20T18:29:25.927Z,99580.41
2018-11-20T18:32:13.857Z,99580.41
2018-11-20T18:35:07.370Z,99605.75
2018-11-20T18:38:00.679Z,99605.75
2018-11-20T18:40:51.408Z,99613.34
2018-11-20T18:43:39.199Z,99619.31
2018-11-20T18:46:29.818Z,99605.86
2018-11-20T18:49:20.369Z,99599.39
2018-11-20T18:52:06.625Z,99599.39
2018-11-20T18:54:54.430Z,99584.42
2018-11-20T18:57:48.049Z,99613.73
2018-11-20T19:00:50.914Z,99613.73
2018-11-20T19:03:37.474Z,99624.55
2018-11-20T19:06:24.520Z,99624.55
2018-11-20T19:09:12.326Z,99629.55
2018-11-20T19:12:03.683Z,99628.39
2018-11-20T19:14:46.342Z,99619.28
2018-11-20T19:17:43.035Z,99611.16
2018-11-20T19:20:35.895Z,99597.70
2018-11-20T19:23:22.577Z,99609.84
2018-11-20T19:26:08.905Z,99609.84
2018-11-20T19:28:55.145Z,99602.58
2018-11-20T19:31:41.620Z,99602.58
2018-11-20T19:34:26.913Z,99613.34
2018-11-20T19:37:17.687Z,99613.34
2018-11-20T19:40:11.094Z,99597.84
2018-11-20T19:43:13.856Z,99602.16
2018-11-20T19:46:01.658Z,99611.27
2018-11-20T19:48:47.854Z,99607.09
2018-11-20T19:51:35.812Z,99636.50
2018-11-20T19:54:16.758Z,99645.88
2018-11-20T20:00:38.536Z,99654.30
2018-11-20T20:03:24.931Z,99676.80
2018-11-20T20:06:11.800Z,99655.33
2018-11-20T20:09:02.471Z,99655.33
2018-11-20T20:11:50.395Z,99677.56
2018-11-20T20:14:47.258Z,99669.70
2018-11-20T20:17:35.193Z,99675.80
2018-11-20T20:20:29.184Z,99673.27
2018-11-20T20:23:29.302Z,99673.27
2018-11-20T20:26:15.696Z,99683.45
2018-11-20T20:29:02.430Z,99683.45
2018-11-20T20:31:49.420Z,99699.08
2018-11-20T20:34:28.860Z,99699.08
2018-11-20T20:37:15.529Z,99698.89
2018-11-20T20:40:02.136Z,99696.25
2018-11-20T20:42:57.571Z,99691.51
2018-11-20T20:45:51.156Z,99691.51
2018-11-20T20:48:37.787Z,99711.26
2018-11-20T20:51:25.626Z,99707.52
2018-11-20T20:54:12.670Z,99711.70
2018-11-20T20:57:11.197Z,99715.31
2018-11-20T20:59:54.852Z,99718.02
2018-11-20T21:02:42.880Z,99718.02
2018-11-20T21:05:27.983Z,99746.32
2018-11-20T21:08:07.254Z,99746.32
2018-11-20T21:11:13.767Z,99743.03
2018-11-20T21:14:20.034Z,99743.03
2018-11-20T21:17:02.637Z,99753.94
2018-11-20T21:19:56.216Z,99757.30
2018-11-20T21:22:42.813Z,99744.03
2018-11-20T21:25:48.835Z,99749.03
2018-11-20T21:28:35.380Z,99737.55
2018-11-20T21:31:26.170Z,99767.30
2018-11-20T21:34:14.223Z,99775.52
2018-11-20T21:37:00.637Z,99736.25
2018-11-20T21:40:03.411Z,99761.54
2018-11-20T21:42:49.926Z,99768.68
2018-11-20T21:45:53.008Z,99768.68
2018-11-20T21:48:40.249Z,99775.87
2018-11-20T21:51:26.734Z,99765.92
2018-11-20T21:54:29.724Z,99752.89
2018-11-20T21:57:18.708Z,99752.89
2018-11-20T22:00:12.453Z,99752.42
2018-11-20T22:03:02.140Z,99751.28
2018-11-20T22:05:49.166Z,99758.79
2018-11-20T22:08:40.061Z,99755.59
2018-11-20T22:11:31.100Z,99755.23
2018-11-20T22:14:09.781Z,99740.04
2018-11-20T22:16:53.743Z,99764.84
2018-11-20T22:19:40.203Z,99802.52
2018-11-20T22:22:40.476Z,99802.52
2018-11-20T22:25:28.387Z,99813.92
2018-11-20T22:28:24.909Z,99824.48
2018-11-20T22:31:12.681Z,99794.54
2018-11-20T22:34:03.390Z,99791.46
2018-11-20T22:36:50.188Z,99791.46
2018-11-20T22:39:30.044Z,99781.16
2018-11-20T22:42:17.782Z,99776.27
2018-11-20T22:45:21.031Z,99778.48
2018-11-20T22:48:02.051Z,99779.28
2018-11-20T22:51:02.065Z,99781.63
2018-11-20T22:54:05.058Z,99786.90
2018-11-20T22:57:11.438Z,99786.90
2018-11-20T22:59:57.937Z,99779.11
2018-11-20T23:02:51.702Z,99760.23
2018-11-20T23:05:44.450Z,99764.38
2018-11-20T23:08:13.447Z,99771.39
2018-11-20T23:10:42.508Z,99778.65
2018-11-20T23:13:11.434Z,99761.62
2018-11-20T23:15:40.474Z,99759.59
2018-11-20T23:18:09.412Z,99759.59
2018-11-20T23:20:38.368Z,99746.75
2018-11-20T23:23:07.314Z,99752.65
2018-11-20T23:25:36.246Z,99759.17
2018-11-20T23:28:05.498Z,99762.75
2018-11-20T23:30:34.649Z,99770.47
2018-11-20T23:33:03.596Z,99763.31
2018-11-20T23:35:32.519Z,99763.31
2018-11-20T23:38:01.471Z,99771.38
2018-11-20T23:40:30.420Z,99770.40
2018-11-20T23:42:59.357Z,99775.31
2018-11-20T23:45:28.300Z,99775.31
2018-11-20T23:47:57.354Z,99775.17
2018-11-20T23:50:26.372Z,99776.66
2018-11-20T23:52:55.232Z,99779.97
2018-11-20T23:55:24.194Z,99772.66
2018-11-20T23:57:53.210Z,99772.66
